createdAt,value
2023-03-29T00:00:20.564Z,1.09
2023-03-29T00:01:35.210Z,1.06
2023-03-29T00:02:21.593Z,1.06
2023-03-29T00:03:20.633Z,1.06
2023-03-29T00:04:20.615Z,1.06
2023-03-29T00:05:20.553Z,1.02
2023-03-29T00:06:20.534Z,1.06
2023-03-29T00:07:20.522Z,1.06
2023-03-29T00:08:20.509Z,1.04
2023-03-29T00:09:20.487Z,1.10
2023-03-29T00:10:20.473Z,1.09
2023-03-29T00:11:20.489Z,1.07
2023-03-29T00:12:20.478Z,1.09
2023-03-29T00:13:20.522Z,1.09
2023-03-29T00:14:20.527Z,1.01
2023-03-29T00:15:20.586Z,1.09
2023-03-29T00:16:20.706Z,1.09
2023-03-29T00:17:20.679Z,1.09
2023-03-29T00:18:20.691Z,1.06
2023-03-29T00:19:20.747Z,1.05
2023-03-29T00:20:20.758Z,1.05
2023-03-29T00:21:20.827Z,1.04
2023-03-29T00:22:20.865Z,1.03
2023-03-29T00:23:20.941Z,1.02
2023-03-29T00:24:21.069Z,1.00
2023-03-29T00:25:21.035Z,0.98
2023-03-29T00:26:21.040Z,1.00
2023-03-29T00:27:21.074Z,0.99
2023-03-29T00:28:21.122Z,1.00
2023-03-29T00:29:21.163Z,1.02
2023-03-29T00:30:21.197Z,0.99
2023-03-29T00:31:21.205Z,0.96
2023-03-29T00:32:21.328Z,0.99
2023-03-29T00:33:21.296Z,0.98
2023-03-29T00:34:21.352Z,0.96
2023-03-29T00:35:21.437Z,0.97
2023-03-29T00:36:21.424Z,0.99
2023-03-29T00:37:21.458Z,0.96
2023-03-29T00:38:21.543Z,0.98
2023-03-29T00:39:21.608Z,1.00
2023-03-29T00:40:21.655Z,1.02
2023-03-29T00:41:21.670Z,0.98
2023-03-29T00:42:21.728Z,0.99
2023-03-29T00:43:21.787Z,1.01
2023-03-29T00:44:21.827Z,1.01
2023-03-29T00:45:21.846Z,1.05
2023-03-29T00:46:21.942Z,1.09
2023-03-29T00:47:21.954Z,1.13
2023-03-29T00:48:22.008Z,1.14
2023-03-29T00:49:21.998Z,1.12
2023-03-29T00:50:22.068Z,1.09
2023-03-29T00:51:22.100Z,1.14
2023-03-29T00:52:22.146Z,1.14
2023-03-29T00:53:22.260Z,1.10
2023-03-29T00:54:22.274Z,1.16
2023-03-29T00:55:22.337Z,1.15
2023-03-29T00:56:22.374Z,1.16
2023-03-29T00:57:22.531Z,1.16
2023-03-29T00:58:22.469Z,1.19
2023-03-29T00:59:22.512Z,1.22
2023-03-29T01:00:22.548Z,1.25
2023-03-29T01:01:22.761Z,1.27
2023-03-29T01:02:22.748Z,1.25
2023-03-29T01:03:22.842Z,1.25
2023-03-29T01:04:22.752Z,1.26
2023-03-29T01:05:22.804Z,1.29
2023-03-29T01:06:22.970Z,1.27
2023-03-29T01:07:22.906Z,1.33
2023-03-29T01:08:22.959Z,1.33
2023-03-29T01:09:22.953Z,1.31
2023-03-29T01:10:23.031Z,1.29
2023-03-29T01:11:23.060Z,1.29
2023-03-29T01:12:23.120Z,1.29
2023-03-29T01:13:23.177Z,1.31
2023-03-29T01:14:23.194Z,1.29
2023-03-29T01:15:23.259Z,1.27
2023-03-29T01:16:23.334Z,1.27
2023-03-29T01:17:23.353Z,1.30
2023-03-29T01:18:23.410Z,1.32
2023-03-29T01:19:23.481Z,1.27
2023-03-29T01:20:23.468Z,1.27
2023-03-29T01:21:23.604Z,1.23
2023-03-29T01:22:23.574Z,1.19
2023-03-29T01:23:23.637Z,1.23
2023-03-29T01:24:23.656Z,1.21
2023-03-29T01:25:23.751Z,1.18
2023-03-29T01:26:23.770Z,1.18
2023-03-29T01:27:23.790Z,1.20
2023-03-29T01:28:23.851Z,1.19
2023-03-29T01:29:23.894Z,1.21
2023-03-29T01:30:23.923Z,1.24
2023-03-29T01:31:24.027Z,1.22
2023-03-29T01:32:24.065Z,1.17
2023-03-29T01:33:24.052Z,1.16
2023-03-29T01:34:24.089Z,1.15
2023-03-29T01:35:24.109Z,1.12
2023-03-29T01:36:24.129Z,1.13
2023-03-29T01:37:24.167Z,1.17
2023-03-29T01:38:24.219Z,1.13
2023-03-29T01:39:24.248Z,1.15
2023-03-29T01:40:24.334Z,1.10
2023-03-29T01:41:24.321Z,1.12
2023-03-29T01:42:24.403Z,1.11
2023-03-29T01:43:24.402Z,1.11
2023-03-29T01:44:24.453Z,1.09
2023-03-29T01:45:24.478Z,1.06
2023-03-29T01:46:24.521Z,1.08
2023-03-29T01:47:24.562Z,1.06
2023-03-29T01:48:24.624Z,1.01
2023-03-29T01:49:24.654Z,1.07
2023-03-29T01:50:24.674Z,1.02
2023-03-29T01:51:24.705Z,1.01
2023-03-29T01:52:24.704Z,1.01
2023-03-29T01:53:24.764Z,1.00
2023-03-29T01:54:24.804Z,1.03
2023-03-29T01:55:24.854Z,1.00
2023-03-29T01:56:24.896Z,0.98
2023-03-29T01:57:25.099Z,0.99
2023-03-29T01:58:24.931Z,0.96
2023-03-29T01:59:25.015Z,0.93
2023-03-29T02:00:25.065Z,0.96
2023-03-29T02:01:25.121Z,0.93
2023-03-29T02:02:25.160Z,0.95
2023-03-29T02:03:25.228Z,0.94
2023-03-29T02:04:25.201Z,0.92
2023-03-29T02:05:25.243Z,0.90
2023-03-29T02:06:25.270Z,0.89
2023-03-29T02:07:25.345Z,0.89
2023-03-29T02:08:25.365Z,0.90
2023-03-29T02:09:25.450Z,0.89
2023-03-29T02:10:25.427Z,0.90
2023-03-29T02:11:25.488Z,0.93
2023-03-29T02:12:25.515Z,0.94
2023-03-29T02:13:25.529Z,0.97
2023-03-29T02:14:25.566Z,0.99
2023-03-29T02:15:25.679Z,1.00
2023-03-29T02:16:25.668Z,1.04
2023-03-29T02:17:25.720Z,1.04
2023-03-29T02:18:25.745Z,1.02
2023-03-29T02:19:25.814Z,0.98
2023-03-29T02:20:25.851Z,0.97
2023-03-29T02:21:25.872Z,0.94
2023-03-29T02:22:25.942Z,0.96
2023-03-29T02:23:25.966Z,0.93
2023-03-29T02:24:25.996Z,0.93
2023-03-29T02:25:26.147Z,0.91
2023-03-29T02:26:26.102Z,0.90
2023-03-29T02:27:26.154Z,0.93
2023-03-29T02:28:26.184Z,0.95
2023-03-29T02:29:26.168Z,0.95
2023-03-29T02:30:26.209Z,0.95
2023-03-29T02:31:26.255Z,0.93
2023-03-29T02:32:26.290Z,0.93
2023-03-29T02:33:26.280Z,0.94
2023-03-29T02:34:26.307Z,0.93
2023-03-29T02:35:26.342Z,0.94
2023-03-29T02:36:26.344Z,0.91
2023-03-29T02:37:26.400Z,0.92
2023-03-29T02:38:26.423Z,0.92
2023-03-29T02:39:26.420Z,0.89
2023-03-29T02:40:26.480Z,0.91
2023-03-29T02:41:26.476Z,0.90
2023-03-29T02:42:26.540Z,0.90
2023-03-29T02:43:26.540Z,0.88
2023-03-29T02:44:26.552Z,0.90
2023-03-29T02:45:26.607Z,0.87
2023-03-29T02:46:26.711Z,0.85
2023-03-29T02:47:26.701Z,0.83
2023-03-29T02:48:26.699Z,0.84
2023-03-29T02:49:26.733Z,0.81
2023-03-29T02:50:26.789Z,0.83
2023-03-29T02:51:26.806Z,0.85
2023-03-29T02:52:26.820Z,0.87
2023-03-29T02:53:26.792Z,0.90
2023-03-29T02:54:26.830Z,0.88
2023-03-29T02:55:26.826Z,0.86
2023-03-29T02:56:26.852Z,0.88
2023-03-29T02:57:26.999Z,0.89
2023-03-29T02:58:26.920Z,0.90
2023-03-29T02:59:26.918Z,0.91
2023-03-29T03:00:26.941Z,0.91
2023-03-29T03:01:27.010Z,0.92
2023-03-29T03:02:27.004Z,0.92
2023-03-29T03:03:27.148Z,0.95
2023-03-29T03:04:27.061Z,0.93
2023-03-29T03:05:27.112Z,0.94
2023-03-29T03:06:27.139Z,0.98
2023-03-29T03:07:27.182Z,1.00
2023-03-29T03:08:27.237Z,1.03
2023-03-29T03:09:27.270Z,1.05
2023-03-29T03:10:27.301Z,1.08
2023-03-29T03:11:27.316Z,1.14
2023-03-29T03:12:27.341Z,1.17
2023-03-29T03:13:27.358Z,1.17
2023-03-29T03:14:27.388Z,1.15
2023-03-29T03:15:27.432Z,1.14
2023-03-29T03:16:27.527Z,1.13
2023-03-29T03:17:27.551Z,1.15
2023-03-29T03:18:27.519Z,1.17
2023-03-29T03:19:27.565Z,1.21
2023-03-29T03:20:27.621Z,1.23
2023-03-29T03:21:27.677Z,1.27
2023-03-29T03:22:27.675Z,1.27
2023-03-29T03:23:27.742Z,1.32
2023-03-29T03:24:27.792Z,1.36
2023-03-29T03:25:27.847Z,1.38
2023-03-29T03:26:27.876Z,1.39
2023-03-29T03:27:28.775Z,1.34
2023-03-29T03:28:27.976Z,1.42
2023-03-29T03:29:27.990Z,1.33
2023-03-29T03:30:28.011Z,1.36
2023-03-29T03:31:28.116Z,1.35
2023-03-29T03:32:28.144Z,1.38
2023-03-29T03:33:28.117Z,1.38
2023-03-29T03:34:28.152Z,1.42
2023-03-29T03:35:28.244Z,1.42
2023-03-29T03:36:28.223Z,1.43
2023-03-29T03:37:28.321Z,1.40
2023-03-29T03:38:28.339Z,1.43
2023-03-29T03:39:28.382Z,1.46
2023-03-29T03:40:28.503Z,1.25
2023-03-29T03:41:28.456Z,1.24
2023-03-29T03:42:28.494Z,1.04
2023-03-29T03:43:28.542Z,1.13
2023-03-29T03:44:28.592Z,1.22
2023-03-29T03:45:28.620Z,1.23
2023-03-29T03:46:29.731Z,1.28
2023-03-29T03:47:28.812Z,1.33
2023-03-29T03:48:28.745Z,1.33
2023-03-29T03:49:28.821Z,1.33
2023-03-29T03:50:28.825Z,1.35
2023-03-29T03:51:28.867Z,1.35
2023-03-29T03:52:28.882Z,1.33
2023-03-29T03:53:28.888Z,1.33
2023-03-29T03:54:28.944Z,1.39
2023-03-29T03:55:28.970Z,1.33
2023-03-29T03:56:29.039Z,1.34
2023-03-29T03:57:29.060Z,1.42
2023-03-29T03:58:29.103Z,1.37
2023-03-29T03:59:29.124Z,1.40
2023-03-29T04:00:29.187Z,1.43
2023-03-29T04:01:29.231Z,1.46
2023-03-29T04:02:29.312Z,1.44
2023-03-29T04:03:29.402Z,1.45
2023-03-29T04:04:29.375Z,1.43
2023-03-29T04:05:29.381Z,1.47
2023-03-29T04:06:29.404Z,1.43
2023-03-29T04:07:29.456Z,1.42
2023-03-29T04:08:29.526Z,1.42
2023-03-29T04:09:29.525Z,1.48
2023-03-29T04:10:29.620Z,1.49
2023-03-29T04:11:29.651Z,1.49
2023-03-29T04:12:29.643Z,1.54
2023-03-29T04:13:29.689Z,1.51
2023-03-29T04:14:29.744Z,1.56
2023-03-29T04:15:29.864Z,1.59
2023-03-29T04:16:29.864Z,1.77
2023-03-29T04:17:29.870Z,1.77
2023-03-29T04:18:29.996Z,1.73
2023-03-29T04:19:29.929Z,1.73
2023-03-29T04:20:29.967Z,1.73
2023-03-29T04:21:30.031Z,1.66
2023-03-29T04:22:30.055Z,1.74
2023-03-29T04:23:30.097Z,1.74
2023-03-29T04:24:30.161Z,1.84
2023-03-29T04:25:30.167Z,1.62
2023-03-29T04:26:30.206Z,1.40
2023-03-29T04:27:30.225Z,1.39
2023-03-29T04:28:30.268Z,1.52
2023-03-29T04:29:30.332Z,1.61
2023-03-29T04:30:30.343Z,1.72
2023-03-29T04:31:30.397Z,1.80
2023-03-29T04:32:30.459Z,1.85
2023-03-29T04:33:30.462Z,1.89
2023-03-29T04:34:30.492Z,1.97
2023-03-29T04:35:30.581Z,2.02
2023-03-29T04:36:30.563Z,2.04
2023-03-29T04:37:30.572Z,1.88
2023-03-29T04:38:30.611Z,1.18
2023-03-29T04:39:30.656Z,0.83
2023-03-29T04:40:30.744Z,0.95
2023-03-29T04:41:30.767Z,1.21
2023-03-29T04:42:30.794Z,1.49
2023-03-29T04:43:30.784Z,1.65
2023-03-29T04:44:30.844Z,1.72
2023-03-29T04:45:30.910Z,1.88
2023-03-29T04:46:30.956Z,1.84
2023-03-29T04:47:31.030Z,1.04
2023-03-29T04:48:31.012Z,0.68
2023-03-29T04:49:31.076Z,0.57
2023-03-29T04:50:31.099Z,0.65
2023-03-29T04:51:31.166Z,0.98
2023-03-29T04:52:31.170Z,1.24
2023-03-29T04:53:31.186Z,1.48
2023-03-29T04:54:31.250Z,1.68
2023-03-29T04:55:31.293Z,1.81
2023-03-29T04:56:31.293Z,1.93
2023-03-29T04:57:31.380Z,2.01
2023-03-29T04:58:32.568Z,2.06
2023-03-29T04:59:31.458Z,2.05
2023-03-29T05:00:31.453Z,2.06
2023-03-29T05:01:38.513Z,2.11
2023-03-29T05:02:31.533Z,2.11
2023-03-29T05:03:31.472Z,2.12
2023-03-29T05:04:31.561Z,2.13
2023-03-29T05:05:31.465Z,2.19
2023-03-29T05:06:31.429Z,2.51
2023-03-29T05:07:31.424Z,2.88
2023-03-29T05:08:31.405Z,3.01
2023-03-29T05:09:33.044Z,2.98
2023-03-29T05:10:31.385Z,3.07
2023-03-29T05:11:31.391Z,3.22
2023-03-29T05:12:31.363Z,3.30
2023-03-29T05:13:31.357Z,3.35
2023-03-29T05:14:31.347Z,3.25
2023-03-29T05:15:31.326Z,3.11
2023-03-29T05:16:31.377Z,3.10
2023-03-29T05:17:31.306Z,3.66
2023-03-29T05:18:31.283Z,3.92
2023-03-29T05:19:31.246Z,3.85
2023-03-29T05:20:31.261Z,3.88
2023-03-29T05:21:31.265Z,3.85
2023-03-29T05:22:31.267Z,3.81
2023-03-29T05:23:31.253Z,3.77
2023-03-29T05:24:31.211Z,3.72
2023-03-29T05:25:31.197Z,3.99
2023-03-29T05:26:31.201Z,4.68
2023-03-29T05:27:31.214Z,6.03
2023-03-29T05:28:31.210Z,7.78
2023-03-29T05:29:31.171Z,9.45
2023-03-29T05:30:31.152Z,10.47
2023-03-29T05:31:31.232Z,10.61
2023-03-29T05:32:31.159Z,10.54
2023-03-29T05:33:31.110Z,9.74
2023-03-29T05:34:31.138Z,9.23
2023-03-29T05:35:31.126Z,8.77
2023-03-29T05:36:31.094Z,8.44
2023-03-29T05:37:31.073Z,8.08
2023-03-29T05:38:31.590Z,8.14
2023-03-29T05:39:31.378Z,8.11
2023-03-29T05:40:31.079Z,7.60
2023-03-29T05:41:31.065Z,7.38
2023-03-29T05:42:31.022Z,6.73
2023-03-29T05:43:31.046Z,6.47
2023-03-29T05:44:31.432Z,5.99
2023-03-29T05:45:31.105Z,5.65
2023-03-29T05:46:38.062Z,5.48
2023-03-29T05:47:31.024Z,5.52
2023-03-29T05:48:31.003Z,5.71
2023-03-29T05:49:31.023Z,6.08
2023-03-29T05:50:31.021Z,6.77
2023-03-29T05:51:30.961Z,7.85
2023-03-29T05:52:30.988Z,8.34
2023-03-29T05:53:30.974Z,8.24
2023-03-29T05:54:30.955Z,8.69
2023-03-29T05:55:30.953Z,8.85
2023-03-29T05:56:30.929Z,8.85
2023-03-29T05:57:30.898Z,8.97
2023-03-29T05:58:30.906Z,8.88
2023-03-29T05:59:30.890Z,8.97
2023-03-29T06:00:30.888Z,9.08
2023-03-29T06:01:30.844Z,9.25
2023-03-29T06:02:30.923Z,9.31
2023-03-29T06:03:30.900Z,9.15
2023-03-29T06:04:31.005Z,9.11
2023-03-29T06:05:30.776Z,9.22
2023-03-29T06:06:30.745Z,9.17
2023-03-29T06:07:30.736Z,9.21
2023-03-29T06:08:30.683Z,9.15
2023-03-29T06:09:30.670Z,9.13
2023-03-29T06:10:30.666Z,8.95
2023-03-29T06:11:30.681Z,9.07
2023-03-29T06:12:30.617Z,8.84
2023-03-29T06:13:30.721Z,8.95
2023-03-29T06:14:31.877Z,8.96
2023-03-29T06:15:31.457Z,9.05
2023-03-29T06:16:30.586Z,8.90
2023-03-29T06:17:30.785Z,8.79
2023-03-29T06:18:30.610Z,8.68
2023-03-29T06:19:30.922Z,8.76
2023-03-29T06:20:30.638Z,8.60
2023-03-29T06:21:30.726Z,8.54
2023-03-29T06:22:30.632Z,8.44
2023-03-29T06:23:30.960Z,8.46
2023-03-29T06:24:30.956Z,8.35
2023-03-29T06:25:30.707Z,8.06
2023-03-29T06:26:30.709Z,8.02
2023-03-29T06:27:30.729Z,8.04
2023-03-29T06:28:30.726Z,7.79
2023-03-29T06:29:30.796Z,7.92
2023-03-29T06:30:30.700Z,7.91
2023-03-29T06:31:30.771Z,8.06
2023-03-29T06:32:30.748Z,7.91
2023-03-29T06:33:30.787Z,7.79
2023-03-29T06:34:30.809Z,7.90
2023-03-29T06:35:30.781Z,7.90
2023-03-29T06:36:30.823Z,7.99
2023-03-29T06:37:30.826Z,8.09
2023-03-29T06:38:30.853Z,8.62
2023-03-29T06:39:30.847Z,8.79
2023-03-29T06:40:30.854Z,9.57
2023-03-29T06:41:30.898Z,9.36
2023-03-29T06:42:30.914Z,8.49
2023-03-29T06:43:30.974Z,5.93
2023-03-29T06:44:31.431Z,4.20
2023-03-29T06:45:31.090Z,2.91
2023-03-29T06:46:31.043Z,2.08
2023-03-29T06:47:31.161Z,1.64
2023-03-29T06:48:31.029Z,1.35
2023-03-29T06:49:31.063Z,1.05
2023-03-29T06:50:31.104Z,0.94
2023-03-29T06:51:31.132Z,0.86
2023-03-29T06:52:31.170Z,0.77
2023-03-29T06:53:31.254Z,0.79
2023-03-29T06:54:31.508Z,0.75
2023-03-29T06:55:31.368Z,0.72
2023-03-29T06:56:31.402Z,0.75
2023-03-29T06:57:31.706Z,0.74
2023-03-29T06:58:32.852Z,0.92
2023-03-29T06:59:31.948Z,0.99
2023-03-29T07:00:31.576Z,0.91
2023-03-29T07:01:31.674Z,0.92
2023-03-29T07:02:31.857Z,0.93
2023-03-29T07:03:31.763Z,1.10
2023-03-29T07:04:32.029Z,1.27
2023-03-29T07:05:31.886Z,1.51
2023-03-29T07:06:31.914Z,1.88
2023-03-29T07:07:31.997Z,2.21
2023-03-29T07:08:32.042Z,2.85
2023-03-29T07:09:32.231Z,3.49
2023-03-29T07:10:32.173Z,3.11
2023-03-29T07:11:32.129Z,3.32
2023-03-29T07:12:32.171Z,4.49
2023-03-29T07:13:32.193Z,4.97
2023-03-29T07:14:32.437Z,3.79
2023-03-29T07:15:32.241Z,3.40
2023-03-29T07:16:32.349Z,3.62
2023-03-29T07:17:32.380Z,3.16
2023-03-29T07:18:32.370Z,3.09
2023-03-29T07:19:32.401Z,2.95
2023-03-29T07:20:32.453Z,2.87
2023-03-29T07:21:32.465Z,2.97
2023-03-29T07:22:32.474Z,2.94
2023-03-29T07:23:32.482Z,2.36
2023-03-29T07:24:32.612Z,2.43
2023-03-29T07:25:32.476Z,2.98
2023-03-29T07:26:32.501Z,3.97
2023-03-29T07:27:32.500Z,3.76
2023-03-29T07:28:32.509Z,3.13
2023-03-29T07:29:32.478Z,3.26
2023-03-29T07:30:32.977Z,3.61
2023-03-29T07:31:32.470Z,3.24
2023-03-29T07:32:32.674Z,3.53
2023-03-29T07:33:32.605Z,4.60
2023-03-29T07:34:32.470Z,3.61
2023-03-29T07:35:32.479Z,3.09
2023-03-29T07:36:32.489Z,4.86
2023-03-29T07:37:32.500Z,6.12
2023-03-29T07:38:32.548Z,6.71
2023-03-29T07:39:32.473Z,7.28
2023-03-29T07:40:32.482Z,7.47
2023-03-29T07:41:32.463Z,7.55
2023-03-29T07:42:32.478Z,7.62
2023-03-29T07:43:32.467Z,8.12
2023-03-29T07:44:32.461Z,6.19
2023-03-29T07:45:33.478Z,5.51
2023-03-29T07:46:32.475Z,5.37
2023-03-29T07:47:32.489Z,5.05
2023-03-29T07:48:32.447Z,3.44
2023-03-29T07:49:32.444Z,2.35
2023-03-29T07:50:32.534Z,1.59
2023-03-29T07:51:32.461Z,1.25
2023-03-29T07:52:32.430Z,1.40
2023-03-29T07:53:32.441Z,1.31
2023-03-29T07:54:32.425Z,1.32
2023-03-29T07:55:32.483Z,1.32
2023-03-29T07:56:32.497Z,1.36
2023-03-29T07:57:32.588Z,1.57
2023-03-29T07:58:32.516Z,1.19
2023-03-29T07:59:32.565Z,0.90
2023-03-29T08:00:32.645Z,0.94
2023-03-29T08:01:32.669Z,0.84
2023-03-29T08:02:32.672Z,0.91
2023-03-29T08:03:32.743Z,1.10
2023-03-29T08:04:32.779Z,1.25
2023-03-29T08:05:40.709Z,1.40
2023-03-29T08:06:34.279Z,1.40
2023-03-29T08:07:32.708Z,1.43
2023-03-29T08:08:32.668Z,1.48
2023-03-29T08:09:32.681Z,1.50
2023-03-29T08:10:32.718Z,1.47
2023-03-29T08:11:32.702Z,1.23
2023-03-29T08:12:32.712Z,1.05
2023-03-29T08:13:32.719Z,1.12
2023-03-29T08:14:32.618Z,1.06
2023-03-29T08:15:32.987Z,1.00
2023-03-29T08:16:32.647Z,1.18
2023-03-29T08:17:33.582Z,1.10
2023-03-29T08:18:34.751Z,1.06
2023-03-29T08:19:32.631Z,1.15
2023-03-29T08:20:32.617Z,1.23
2023-03-29T08:21:32.574Z,1.63
2023-03-29T08:22:32.580Z,1.29
2023-03-29T08:23:32.549Z,1.36
2023-03-29T08:24:32.603Z,1.13
2023-03-29T08:25:32.973Z,0.95
2023-03-29T08:26:32.519Z,0.86
2023-03-29T08:27:32.568Z,0.67
2023-03-29T08:28:32.581Z,0.65
2023-03-29T08:29:32.596Z,0.59
2023-03-29T08:30:32.629Z,0.77
2023-03-29T08:31:32.680Z,1.47
2023-03-29T08:32:32.653Z,2.60
2023-03-29T08:33:32.651Z,3.39
2023-03-29T08:34:32.654Z,3.74
2023-03-29T08:35:32.691Z,2.49
2023-03-29T08:36:32.615Z,1.86
2023-03-29T08:37:32.645Z,1.14
2023-03-29T08:38:32.649Z,1.33
2023-03-29T08:39:32.651Z,0.98
2023-03-29T08:40:32.625Z,0.88
2023-03-29T08:41:33.097Z,0.94
2023-03-29T08:42:32.650Z,0.84
2023-03-29T08:43:32.688Z,0.96
2023-03-29T08:44:32.655Z,1.06
2023-03-29T08:45:32.697Z,1.02
2023-03-29T08:46:35.316Z,0.94
2023-03-29T08:47:32.724Z,1.07
2023-03-29T08:48:32.675Z,2.06
2023-03-29T08:49:32.667Z,2.39
2023-03-29T08:50:32.660Z,2.70
2023-03-29T08:51:32.625Z,2.59
2023-03-29T08:52:32.600Z,1.36
2023-03-29T08:53:32.580Z,1.23
2023-03-29T08:54:32.602Z,0.79
2023-03-29T08:55:32.983Z,0.64
2023-03-29T08:56:34.086Z,0.66
2023-03-29T08:57:32.621Z,0.63
2023-03-29T08:58:32.549Z,0.59
2023-03-29T08:59:32.504Z,0.48
2023-03-29T09:00:32.513Z,0.50
2023-03-29T09:01:32.593Z,0.56
2023-03-29T09:02:32.605Z,0.53
2023-03-29T09:03:32.630Z,0.51
2023-03-29T09:04:32.479Z,0.50
2023-03-29T09:05:32.522Z,0.49
2023-03-29T09:06:32.464Z,0.55
2023-03-29T09:07:32.466Z,0.74
2023-03-29T09:08:32.457Z,0.86
2023-03-29T09:09:32.421Z,1.11
2023-03-29T09:10:32.503Z,1.11
2023-03-29T09:11:32.433Z,0.82
2023-03-29T09:12:32.415Z,0.66
2023-03-29T09:13:32.426Z,0.64
2023-03-29T09:14:32.380Z,0.66
2023-03-29T09:15:32.427Z,0.76
2023-03-29T09:16:32.410Z,0.73
2023-03-29T09:17:32.528Z,0.90
2023-03-29T09:18:32.366Z,1.91
2023-03-29T09:19:32.339Z,2.89
2023-03-29T09:20:32.361Z,3.39
2023-03-29T09:21:32.324Z,3.78
2023-03-29T09:22:32.464Z,3.81
2023-03-29T09:23:32.347Z,4.02
2023-03-29T09:24:32.351Z,4.05
2023-03-29T09:25:36.237Z,4.15
2023-03-29T09:26:33.416Z,4.15
2023-03-29T09:27:32.416Z,4.17
2023-03-29T09:28:32.328Z,4.22
2023-03-29T09:29:32.357Z,4.28
2023-03-29T09:30:32.489Z,4.54
2023-03-29T09:31:32.353Z,4.62
2023-03-29T09:32:32.361Z,4.64
2023-03-29T09:33:32.261Z,4.81
2023-03-29T09:34:32.252Z,5.48
2023-03-29T09:35:32.288Z,5.25
2023-03-29T09:36:32.261Z,7.04
2023-03-29T09:37:32.261Z,7.53
2023-03-29T09:38:32.817Z,7.78
2023-03-29T09:39:32.166Z,6.62
2023-03-29T09:40:32.190Z,6.67
2023-03-29T09:41:32.188Z,5.21
2023-03-29T09:42:32.173Z,4.66
2023-03-29T09:43:32.156Z,4.86
2023-03-29T09:44:32.155Z,4.73
2023-03-29T09:45:32.531Z,4.92
2023-03-29T09:46:32.253Z,5.02
2023-03-29T09:47:32.332Z,5.10
2023-03-29T09:48:32.347Z,5.57
2023-03-29T09:49:32.389Z,5.88
2023-03-29T09:50:32.490Z,5.44
2023-03-29T09:51:32.401Z,4.56
2023-03-29T09:52:32.498Z,4.82
2023-03-29T09:53:32.514Z,3.90
2023-03-29T09:54:32.530Z,3.57
2023-03-29T09:55:32.703Z,3.83
2023-03-29T09:56:32.629Z,2.76
2023-03-29T09:57:32.653Z,2.29
2023-03-29T09:58:32.760Z,2.31
2023-03-29T09:59:32.797Z,2.59
2023-03-29T10:00:32.764Z,2.07
2023-03-29T10:01:33.556Z,1.68
2023-03-29T10:02:32.992Z,1.53
2023-03-29T10:03:32.953Z,1.55
2023-03-29T10:04:33.044Z,1.46
2023-03-29T10:05:33.979Z,1.47
2023-03-29T10:06:32.919Z,1.47
2023-03-29T10:07:32.879Z,1.15
2023-03-29T10:08:33.596Z,0.77
2023-03-29T10:09:32.936Z,0.67
2023-03-29T10:10:33.087Z,0.57
2023-03-29T10:11:32.811Z,0.70
2023-03-29T10:12:32.806Z,0.83
2023-03-29T10:13:32.789Z,0.70
2023-03-29T10:14:32.827Z,0.55
2023-03-29T10:15:32.880Z,0.76
2023-03-29T10:16:33.017Z,0.50
2023-03-29T10:17:33.015Z,0.43
2023-03-29T10:18:33.002Z,0.57
2023-03-29T10:19:32.996Z,0.45
2023-03-29T10:20:33.000Z,0.47
2023-03-29T10:21:33.085Z,0.57
2023-03-29T10:22:33.076Z,0.72
2023-03-29T10:23:33.205Z,1.08
2023-03-29T10:24:33.138Z,1.14
2023-03-29T10:25:33.216Z,1.11
2023-03-29T10:26:33.301Z,0.98
2023-03-29T10:27:33.342Z,0.99
2023-03-29T10:28:33.334Z,1.08
2023-03-29T10:29:33.404Z,1.13
2023-03-29T10:30:33.398Z,1.07
2023-03-29T10:31:33.518Z,1.17
2023-03-29T10:32:33.535Z,0.85
2023-03-29T10:33:33.465Z,0.80
2023-03-29T10:34:33.528Z,0.83
2023-03-29T10:35:33.572Z,0.92
2023-03-29T10:36:33.539Z,0.65
2023-03-29T10:37:33.593Z,0.38
2023-03-29T10:38:33.651Z,0.42
2023-03-29T10:39:33.729Z,0.49
2023-03-29T10:40:33.782Z,0.45
2023-03-29T10:41:33.789Z,0.51
2023-03-29T10:42:33.842Z,0.58
2023-03-29T10:43:33.885Z,0.51
2023-03-29T10:44:33.891Z,0.53
2023-03-29T10:45:34.037Z,0.59
2023-03-29T10:46:34.012Z,0.47
2023-03-29T10:47:34.201Z,0.56
2023-03-29T10:48:34.075Z,0.67
2023-03-29T10:49:34.126Z,0.61
2023-03-29T10:50:34.199Z,0.49
2023-03-29T10:51:34.244Z,0.57
2023-03-29T10:52:34.281Z,0.60
2023-03-29T10:53:34.325Z,0.75
2023-03-29T10:54:34.367Z,0.69
2023-03-29T10:55:34.444Z,0.79
2023-03-29T10:56:34.477Z,0.89
2023-03-29T10:57:34.598Z,1.08
2023-03-29T10:58:34.553Z,1.25
2023-03-29T10:59:34.607Z,0.78
2023-03-29T11:00:34.690Z,0.74
2023-03-29T11:01:34.711Z,0.58
2023-03-29T11:02:34.824Z,0.74
2023-03-29T11:03:34.864Z,0.92
2023-03-29T11:04:34.812Z,1.14
2023-03-29T11:05:34.830Z,0.71
2023-03-29T11:06:35.131Z,0.76
2023-03-29T11:07:34.934Z,0.74
2023-03-29T11:08:34.968Z,0.89
2023-03-29T11:09:35.059Z,0.98
2023-03-29T11:10:35.149Z,1.39
2023-03-29T11:11:35.146Z,3.08
2023-03-29T11:12:35.161Z,5.47
2023-03-29T11:13:35.206Z,7.12
2023-03-29T11:14:35.256Z,8.14
2023-03-29T11:15:35.406Z,7.72
2023-03-29T11:16:35.343Z,7.24
2023-03-29T11:17:35.438Z,6.52
2023-03-29T11:18:35.486Z,4.75
2023-03-29T11:19:35.462Z,3.26
2023-03-29T11:20:35.548Z,2.81
2023-03-29T11:21:36.067Z,2.54
2023-03-29T11:22:35.622Z,2.47
2023-03-29T11:23:35.613Z,2.40
2023-03-29T11:24:35.647Z,1.75
2023-03-29T11:25:35.719Z,3.69
2023-03-29T11:26:36.089Z,7.07
2023-03-29T11:27:35.787Z,9.20
2023-03-29T11:28:35.781Z,11.22
2023-03-29T11:29:35.842Z,13.29
2023-03-29T11:30:35.910Z,15.50
2023-03-29T11:31:38.337Z,17.54
2023-03-29T11:32:35.914Z,19.71
2023-03-29T11:33:35.855Z,21.35
2023-03-29T11:34:37.148Z,21.26
2023-03-29T11:35:35.843Z,21.76
2023-03-29T11:36:36.039Z,22.57
2023-03-29T11:37:35.718Z,23.14
2023-03-29T11:38:35.718Z,23.70
2023-03-29T11:39:35.698Z,25.26
2023-03-29T11:40:35.717Z,25.01
2023-03-29T11:41:36.079Z,25.74
2023-03-29T11:42:35.657Z,27.20
2023-03-29T11:43:35.728Z,28.35
2023-03-29T11:44:35.549Z,29.26
2023-03-29T11:45:35.589Z,29.95
2023-03-29T11:46:35.536Z,30.88
2023-03-29T11:47:35.576Z,31.45
2023-03-29T11:48:35.480Z,31.08
2023-03-29T11:49:35.453Z,32.15
2023-03-29T11:50:36.843Z,33.36
2023-03-29T11:51:35.433Z,34.64
2023-03-29T11:52:35.383Z,34.61
2023-03-29T11:53:35.337Z,34.79
2023-03-29T11:54:35.348Z,35.49
2023-03-29T11:55:35.311Z,36.47
2023-03-29T11:56:35.287Z,36.31
2023-03-29T11:57:35.262Z,36.73
2023-03-29T11:58:38.285Z,37.13
2023-03-29T11:59:35.219Z,37.17
2023-03-29T12:00:35.203Z,37.50
2023-03-29T12:01:35.148Z,38.24
2023-03-29T12:02:35.348Z,38.34
2023-03-29T12:03:35.227Z,37.33
2023-03-29T12:04:35.148Z,37.56
2023-03-29T12:05:35.076Z,37.28
2023-03-29T12:06:35.060Z,37.46
2023-03-29T12:07:35.020Z,37.36
2023-03-29T12:08:35.001Z,37.56
2023-03-29T12:09:34.968Z,39.00
2023-03-29T12:10:34.949Z,38.83
2023-03-29T12:11:34.930Z,38.71
2023-03-29T12:12:34.892Z,38.35
2023-03-29T12:13:34.908Z,38.06
2023-03-29T12:14:34.866Z,37.87
2023-03-29T12:15:34.820Z,37.76
2023-03-29T12:16:34.882Z,38.38
2023-03-29T12:17:34.783Z,38.04
2023-03-29T12:18:34.738Z,38.47
2023-03-29T12:19:36.749Z,38.61
2023-03-29T12:20:35.728Z,38.65
2023-03-29T12:21:34.716Z,38.70
2023-03-29T12:22:34.626Z,38.52
2023-03-29T12:23:34.644Z,38.94
2023-03-29T12:24:34.607Z,38.61
2023-03-29T12:25:34.582Z,37.34
2023-03-29T12:26:34.539Z,38.82
2023-03-29T12:27:34.501Z,38.53
2023-03-29T12:28:34.505Z,37.82
2023-03-29T12:29:34.431Z,39.88
2023-03-29T12:30:34.564Z,39.18
2023-03-29T12:31:34.421Z,38.49
2023-03-29T12:32:34.444Z,40.01
2023-03-29T12:33:34.364Z,39.26
2023-03-29T12:34:34.329Z,39.20
2023-03-29T12:35:34.406Z,38.36
2023-03-29T12:36:34.266Z,39.56
2023-03-29T12:37:34.248Z,38.58
2023-03-29T12:38:34.217Z,38.53
2023-03-29T12:39:34.193Z,38.27
2023-03-29T12:40:34.162Z,37.35
2023-03-29T12:41:34.149Z,36.14
2023-03-29T12:42:34.149Z,35.44
2023-03-29T12:43:34.118Z,34.56
2023-03-29T12:44:34.083Z,33.84
2023-03-29T12:45:34.060Z,33.41
2023-03-29T12:46:34.099Z,32.87
2023-03-29T12:47:34.091Z,36.74
2023-03-29T12:48:34.061Z,35.95
2023-03-29T12:49:34.019Z,17.48
2023-03-29T12:50:34.014Z,13.26
2023-03-29T12:51:34.014Z,7.72
2023-03-29T12:52:34.049Z,4.62
2023-03-29T12:53:34.051Z,5.82
2023-03-29T12:54:34.136Z,8.20
2023-03-29T12:55:34.174Z,11.22
2023-03-29T12:56:34.582Z,13.63
2023-03-29T12:57:34.144Z,15.29
2023-03-29T12:58:34.183Z,14.02
2023-03-29T12:59:34.199Z,14.47
2023-03-29T13:00:34.191Z,14.58
2023-03-29T13:01:34.445Z,16.84
2023-03-29T13:02:34.362Z,18.36
2023-03-29T13:03:34.289Z,18.80
2023-03-29T13:04:34.316Z,17.89
2023-03-29T13:05:34.346Z,19.27
2023-03-29T13:06:34.356Z,19.31
2023-03-29T13:07:34.344Z,20.01
2023-03-29T13:08:34.354Z,20.50
2023-03-29T13:09:34.373Z,22.26
2023-03-29T13:10:34.406Z,23.30
2023-03-29T13:11:34.405Z,26.39
2023-03-29T13:12:34.407Z,25.98
2023-03-29T13:13:34.442Z,27.12
2023-03-29T13:14:34.468Z,26.74